Flight Track Log - Related Links

Times and Time Zones

All times are in EDT time to prevent confusion due to time zone crossing. See the BJS542 flight status page for this flight to view local times or setup timezone preferences in your user account.

Time Position Orientation Groundspeed Altitude Reporting Facility
EDT Latitude Longitude Course Direction KTS MPH feet Rate Location/Type
Sun 08:30:22 PM 40.8167 -74.2167 270° West 236 272 3,600  Level New York TRACON
Sun 08:31:16 PM 40.8333 -74.2833 288° West 265 305 5,400 1,200 Climbing New York TRACON
Sun 08:32:22 PM 40.9167 -74.2833 360° North 283 326 6,000 286 Climbing New York TRACON
Sun 08:33:22 PM 40.9833 -74.2333 30° Northeast 290 334 6,000  Level New York TRACON
Sun 08:34:22 PM 41.0667 -74.2000 17° North 289 333 6,000 650 Level New York TRACON
Sun 08:35:22 PM 41.1333 -74.1500 29° Northeast 283 326 7,300 2,400 Climbing New York TRACON
Sun 08:36:22 PM 41.1833 -74.0500 56° Northeast 336 387 10,800 1,850 Climbing New York TRACON
Sun 08:37:22 PM 41.2000 -73.9167 81° East 390 449 11,000 1,211 Climbing New York TRACON
Sun 08:40:05 PM 41.2900 -73.5783 70° East 363 418 15,300 1,426 Climbing Boston Center
Sun 08:41:05 PM 41.3578 -73.4772 48° Northeast 357 411 16,300 836 Climbing Boston Center
Sun 08:42:07 PM 41.4336 -73.3786 44° Northeast 365 420 17,000 353 Climbing Boston Center
Sun 08:43:04 PM 41.4989 -73.2936 44° Northeast 365 420 17,000  Level Boston Center
Sun 08:44:04 PM 41.5956 -73.2006 36° Northeast 372 428 17,000  Level Boston Center
Sun 08:45:05 PM 41.6936 -73.1739 11° North 386 444 17,000  Level Boston Center
Sun 08:46:06 PM 41.8106 -73.1475 10° North 386 444 17,000 -309 Level Boston Center
Sun 08:46:42 PM 41.8711 -73.1258 15° North 400 460 16,500 -1,339 Descending Boston Center
Sun 08:48:07 PM 42.0050 -73.0100 33° Northeast 390 449 14,300 -1,553 Descending Boston Center
Sun 08:48:07 PM 42.0050 -73.0100 33° Northeast 407 468 14,300 -1,474 Level Boston Center
Sun 08:49:04 PM 42.0908 -72.9353 33° Northeast 409 471 12,900 -1,538 Descending Boston Center
Sun 08:50:04 PM 42.1642 -72.8658 35° Northeast 356 410 11,300 -1,488 Descending Boston Center
Sun 08:51:05 PM 42.2353 -72.8017 34° Northeast 319 367 9,900 -1,475 Descending Boston Center
Sun 08:52:06 PM 42.3019 -72.7433 33° Northeast 291 335 8,300 -1,537 Descending Boston Center
Sun 08:53:06 PM 42.3667 -72.6817 35° Northeast 286 329 6,800 -1,388 Descending Boston Center
Sun 08:54:07 PM 42.4336 -72.6258 32° Northeast 286 329 5,500 -915 Descending Boston Center
Sun 08:55:04 PM 42.4983 -72.5669 34° Northeast 281 323 5,000 -254 Descending Boston Center
Sun 08:56:05 PM 42.5608 -72.5078 35° Northeast 281 323 5,000 -689 Level Boston Center
Sun 08:57:06 PM 42.6233 -72.4514 34° Northeast 281 323 3,600 -1,377 Descending Boston Center

Login

Don't have an account? Register now (free) for customized features, flight alerts, and more!